createdAt,value
2018-02-25T00:02:21.709Z,-6.60
2018-02-25T00:04:49.170Z,-6.70
2018-02-25T00:07:17.439Z,-6.70
2018-02-25T00:09:45.666Z,-6.80
2018-02-25T00:12:13.135Z,-6.80
2018-02-25T00:14:40.596Z,-6.80
2018-02-25T00:17:08.066Z,-6.90
2018-02-25T00:19:35.523Z,-6.90
2018-02-25T00:22:02.990Z,-7.00
2018-02-25T00:24:30.459Z,-6.90
2018-02-25T00:26:57.926Z,-7.00
2018-02-25T00:29:26.159Z,-7.00
2018-02-25T00:31:53.625Z,-7.00
2018-02-25T00:34:21.082Z,-7.00
2018-02-25T00:36:48.546Z,-7.10
2018-02-25T00:39:16.010Z,-7.10
2018-02-25T00:41:43.479Z,-7.10
2018-02-25T00:44:11.727Z,-7.20
2018-02-25T00:46:39.179Z,-7.20
2018-02-25T00:49:06.634Z,-7.20
2018-02-25T00:51:34.092Z,-7.30
2018-02-25T00:54:01.560Z,-7.20
2018-02-25T00:56:29.019Z,-7.20
2018-02-25T00:58:56.480Z,-7.30
2018-02-25T01:01:23.940Z,-7.30
2018-02-25T01:03:51.412Z,-7.20
2018-02-25T01:06:18.871Z,-7.30
2018-02-25T01:08:47.107Z,-7.40
2018-02-25T01:11:14.567Z,-7.40
2018-02-25T01:13:42.046Z,-7.30
2018-02-25T01:16:09.502Z,-7.40
2018-02-25T01:18:36.974Z,-7.40
2018-02-25T01:21:05.203Z,-7.40
2018-02-25T01:23:32.674Z,-7.50
2018-02-25T01:26:00.139Z,-7.50
2018-02-25T01:28:27.607Z,-7.50
2018-02-25T01:30:55.094Z,-7.50
2018-02-25T01:33:22.565Z,-7.50
2018-02-25T01:35:50.035Z,-7.50
2018-02-25T01:38:17.506Z,-7.60
2018-02-25T01:40:44.983Z,-7.60
2018-02-25T01:43:12.448Z,-7.60
2018-02-25T01:45:39.923Z,-7.60
2018-02-25T01:48:08.146Z,-7.60
2018-02-25T01:50:47.457Z,-7.60
2018-02-25T01:53:14.914Z,-7.70
2018-02-25T01:55:42.387Z,-7.70
2018-02-25T01:58:09.855Z,-7.70
2018-02-25T02:00:37.325Z,-7.80
2018-02-25T02:03:04.795Z,-7.80
2018-02-25T02:05:32.258Z,-7.90
2018-02-25T02:07:59.739Z,-7.90
2018-02-25T02:10:27.969Z,-7.90
2018-02-25T02:12:55.445Z,-7.90
2018-02-25T02:15:22.914Z,-8.00
2018-02-25T02:17:50.627Z,-7.90
2018-02-25T02:20:18.107Z,-7.90
2018-02-25T02:22:45.571Z,-8.00
2018-02-25T02:25:13.051Z,-8.00
2018-02-25T02:27:40.506Z,-8.00
2018-02-25T02:30:07.984Z,-8.10
2018-02-25T02:32:36.214Z,-8.10
2018-02-25T02:35:03.683Z,-8.10
2018-02-25T02:37:31.150Z,-8.00
2018-02-25T02:39:58.634Z,-8.10
2018-02-25T02:42:26.116Z,-8.10
2018-02-25T02:44:53.587Z,-8.10
2018-02-25T02:47:21.056Z,-8.10
2018-02-25T02:49:48.533Z,-8.20
2018-02-25T02:52:16.006Z,-8.30
2018-02-25T02:54:44.240Z,-8.30
2018-02-25T02:57:11.712Z,-8.30
2018-02-25T02:59:39.175Z,-8.30
2018-02-25T03:02:06.648Z,-8.30
2018-02-25T03:04:34.123Z,-8.40
2018-02-25T03:07:02.351Z,-8.40
2018-02-25T03:09:29.818Z,-8.40
2018-02-25T03:11:57.281Z,-8.40
2018-02-25T03:14:24.747Z,-8.40
2018-02-25T03:16:52.210Z,-8.40
2018-02-25T03:19:19.681Z,-8.40
2018-02-25T03:21:47.917Z,-8.50
2018-02-25T03:24:15.391Z,-8.50
2018-02-25T03:26:42.856Z,-8.50
2018-02-25T03:29:10.342Z,-8.50
2018-02-25T03:31:37.808Z,-8.50
2018-02-25T03:34:05.282Z,-8.50
2018-02-25T03:36:32.749Z,-8.60
2018-02-25T03:39:00.223Z,-8.60
2018-02-25T03:41:27.697Z,-8.60
2018-02-25T03:43:55.178Z,-8.60
2018-02-25T03:46:23.407Z,-8.60
2018-02-25T03:48:50.879Z,-8.60
2018-02-25T03:51:18.334Z,-8.70
2018-02-25T03:53:45.803Z,-8.70
2018-02-25T03:56:13.266Z,-8.70
2018-02-25T03:58:41.074Z,-8.70
2018-02-25T04:01:08.550Z,-8.70
2018-02-25T04:03:36.014Z,-8.80
2018-02-25T04:06:03.489Z,-8.80
2018-02-25T04:08:30.950Z,-8.70
2018-02-25T04:10:58.667Z,-8.80
2018-02-25T04:13:26.194Z,-8.80
2018-02-25T04:15:54.429Z,-8.80
2018-02-25T04:18:21.893Z,-8.90
2018-02-25T04:20:49.362Z,-8.90
2018-02-25T04:23:16.858Z,-8.90
2018-02-25T04:25:44.331Z,-8.90
2018-02-25T04:28:11.804Z,-8.90
2018-02-25T04:30:39.260Z,-8.90
2018-02-25T04:33:06.734Z,-9.00
2018-02-25T04:35:34.190Z,-9.00
2018-02-25T04:38:01.658Z,-9.00
2018-02-25T04:40:29.378Z,-9.00
2018-02-25T04:42:56.865Z,-9.00
2018-02-25T04:45:24.331Z,-9.00
2018-02-25T04:47:51.805Z,-9.10
2018-02-25T04:50:19.279Z,-9.10
2018-02-25T04:52:46.752Z,-9.00
2018-02-25T04:55:14.224Z,-9.10
2018-02-25T04:57:41.706Z,-9.00
2018-02-25T05:00:09.184Z,-9.10
2018-02-25T05:02:36.684Z,-9.00
2018-02-25T05:05:04.151Z,-9.10
2018-02-25T05:07:31.622Z,-9.10
2018-02-25T05:09:59.098Z,-9.10
2018-02-25T05:12:26.563Z,-9.20
2018-02-25T05:14:54.027Z,-9.10
2018-02-25T05:17:21.494Z,-9.10
2018-02-25T05:19:48.966Z,-9.10
2018-02-25T05:22:17.582Z,-9.10
2018-02-25T05:24:45.058Z,-9.20
2018-02-25T05:27:12.548Z,-9.20
2018-02-25T05:29:40.803Z,-9.20
2018-02-25T05:32:08.282Z,-9.20
2018-02-25T05:34:35.756Z,-9.20
2018-02-25T05:37:03.231Z,-9.30
2018-02-25T05:39:30.695Z,-9.30
2018-02-25T05:41:58.222Z,-9.40
2018-02-25T05:44:25.698Z,-9.30
2018-02-25T05:46:53.177Z,-9.30
2018-02-25T05:49:20.642Z,-9.30
2018-02-25T05:51:48.119Z,-9.30
2018-02-25T05:54:16.350Z,-9.30
2018-02-25T05:56:43.810Z,-9.30
2018-02-25T05:59:11.286Z,-9.20
2018-02-25T06:01:38.754Z,-9.20
2018-02-25T06:04:06.438Z,-9.30
2018-02-25T06:06:33.906Z,-9.30
2018-02-25T06:09:01.391Z,-9.20
2018-02-25T06:11:28.861Z,-9.30
2018-02-25T06:13:56.344Z,-9.20
2018-02-25T06:16:23.806Z,-9.20
2018-02-25T06:18:51.301Z,-9.20
2018-02-25T06:21:18.780Z,-9.20
2018-02-25T06:23:46.252Z,-9.20
2018-02-25T06:26:13.722Z,-9.10
2018-02-25T06:28:41.182Z,-9.10
2018-02-25T06:31:08.653Z,-9.10
2018-02-25T06:33:36.113Z,-9.10
2018-02-25T06:36:04.359Z,-9.10
2018-02-25T06:38:31.825Z,-9.20
2018-02-25T06:40:59.316Z,-9.10
2018-02-25T06:43:26.795Z,-9.00
2018-02-25T06:45:55.027Z,-8.90
2018-02-25T06:48:22.496Z,-8.90
2018-02-25T06:50:50.728Z,-8.90
2018-02-25T06:53:18.211Z,-8.90
2018-02-25T06:55:45.674Z,-8.80
2018-02-25T06:58:13.150Z,-8.80
2018-02-25T07:00:40.619Z,-8.80
2018-02-25T07:03:08.075Z,-8.70
2018-02-25T07:05:36.333Z,-8.70
2018-02-25T07:08:03.805Z,-8.80
2018-02-25T07:10:31.278Z,-8.60
2018-02-25T07:12:59.510Z,-8.60
2018-02-25T07:15:26.982Z,-8.70
2018-02-25T07:17:54.445Z,-8.60
2018-02-25T07:20:21.910Z,-8.50
2018-02-25T07:22:49.387Z,-8.60
2018-02-25T07:25:17.611Z,-8.70
2018-02-25T07:27:45.083Z,-8.70
2018-02-25T07:30:12.550Z,-8.60
2018-02-25T07:32:40.032Z,-8.60
2018-02-25T07:35:08.273Z,-8.50
2018-02-25T07:37:35.751Z,-8.50
2018-02-25T07:40:04.007Z,-8.30
2018-02-25T07:42:31.492Z,-8.30
2018-02-25T07:44:58.946Z,-8.30
2018-02-25T07:47:26.405Z,-8.20
2018-02-25T07:49:54.665Z,-8.20
2018-02-25T07:52:22.118Z,-8.30
2018-02-25T07:54:49.585Z,-8.40
2018-02-25T07:57:17.047Z,-8.40
2018-02-25T07:59:44.513Z,-8.50
2018-02-25T08:02:12.763Z,-8.60
2018-02-25T08:04:40.222Z,-8.60
2018-02-25T08:07:07.690Z,-8.50
2018-02-25T08:09:35.166Z,-8.50
2018-02-25T08:12:03.408Z,-8.10
2018-02-25T08:14:30.873Z,-8.10
2018-02-25T08:16:58.339Z,-7.90
2018-02-25T08:19:26.595Z,-7.90
2018-02-25T08:21:54.066Z,-7.90
2018-02-25T08:24:22.308Z,-8.00
2018-02-25T08:26:49.782Z,-8.10
2018-02-25T08:29:17.267Z,-8.00
2018-02-25T08:31:45.522Z,-7.80
2018-02-25T08:34:12.982Z,-7.80
2018-02-25T08:36:40.449Z,-7.60
2018-02-25T08:39:07.914Z,-7.50
2018-02-25T08:41:36.166Z,-7.30
2018-02-25T08:44:03.628Z,-7.30
2018-02-25T08:46:31.098Z,-7.60
2018-02-25T08:48:58.562Z,-7.80
2018-02-25T08:51:26.018Z,-7.60
2018-02-25T08:53:54.262Z,-7.60
2018-02-25T08:56:21.723Z,-7.60
2018-02-25T08:58:49.189Z,-7.60
2018-02-25T09:01:16.654Z,-7.40
2018-02-25T09:03:44.127Z,-7.50
2018-02-25T09:06:12.373Z,-7.20
2018-02-25T09:08:39.834Z,-7.30
2018-02-25T09:11:07.318Z,-7.30
2018-02-25T09:13:34.783Z,-7.20
2018-02-25T09:16:02.256Z,-7.20
2018-02-25T09:18:29.718Z,-6.80
2018-02-25T09:20:57.195Z,-7.00
2018-02-25T09:23:24.650Z,-7.00
2018-02-25T09:25:52.114Z,-6.90
2018-02-25T09:28:19.594Z,-6.60
2018-02-25T09:30:47.318Z,-6.70
2018-02-25T09:33:14.795Z,-6.80
2018-02-25T09:35:42.268Z,-6.70
2018-02-25T09:38:09.730Z,-6.60
2018-02-25T09:40:37.214Z,-6.50
2018-02-25T09:43:05.443Z,-6.40
2018-02-25T09:45:32.907Z,-6.40
2018-02-25T09:48:00.374Z,-6.50
2018-02-25T09:50:27.833Z,-6.50
2018-02-25T09:52:55.312Z,-6.50
2018-02-25T09:55:23.543Z,-6.30
2018-02-25T09:57:51.079Z,-6.30
2018-02-25T10:00:18.538Z,-6.20
2018-02-25T10:02:46.038Z,-6.20
2018-02-25T10:05:13.486Z,-6.20
2018-02-25T10:07:40.963Z,-6.00
2018-02-25T10:10:08.439Z,-6.00
2018-02-25T10:12:36.677Z,-6.00
2018-02-25T10:15:04.143Z,-6.10
2018-02-25T10:17:31.608Z,-6.00
2018-02-25T10:19:59.081Z,-5.80
2018-02-25T10:22:27.306Z,-5.80
2018-02-25T10:24:54.783Z,-5.80
2018-02-25T10:27:22.265Z,-6.00
2018-02-25T10:29:49.735Z,-5.90
2018-02-25T10:32:17.971Z,-6.00
2018-02-25T10:34:45.443Z,-6.00
2018-02-25T10:37:12.911Z,-5.90
2018-02-25T10:39:41.153Z,-5.90
2018-02-25T10:42:08.618Z,-5.90
2018-02-25T10:44:36.086Z,-5.80
2018-02-25T10:47:03.550Z,-5.80
2018-02-25T10:49:31.024Z,-5.60
2018-02-25T10:51:59.259Z,-5.70
2018-02-25T10:54:26.737Z,-5.70
2018-02-25T10:56:54.227Z,-5.70
2018-02-25T10:59:21.706Z,-5.60
2018-02-25T11:01:49.172Z,-5.40
2018-02-25T11:04:16.638Z,-5.60
2018-02-25T11:06:44.111Z,-5.60
2018-02-25T11:09:11.591Z,-5.50
2018-02-25T11:11:39.171Z,-5.50
2018-02-25T11:14:06.646Z,-5.50
2018-02-25T11:16:34.123Z,-5.30
2018-02-25T11:19:01.584Z,-5.20
2018-02-25T11:21:29.060Z,-5.20
2018-02-25T11:23:56.527Z,-5.40
2018-02-25T11:26:23.995Z,-5.20
2018-02-25T11:28:51.464Z,-5.00
2018-02-25T11:31:19.771Z,-5.00
2018-02-25T11:33:47.170Z,-5.00
2018-02-25T11:36:14.639Z,-5.00
2018-02-25T11:38:42.122Z,-5.10
2018-02-25T11:41:10.342Z,-5.10
2018-02-25T11:43:37.834Z,-5.10
2018-02-25T11:46:06.058Z,-4.60
2018-02-25T11:48:33.530Z,-4.70
2018-02-25T11:51:01.004Z,-4.80
2018-02-25T11:53:28.526Z,-5.00
2018-02-25T11:55:59.475Z,-5.00
2018-02-25T11:58:27.620Z,-4.90
2018-02-25T12:00:55.817Z,-4.90
2018-02-25T12:03:23.824Z,-4.90
2018-02-25T12:05:51.372Z,-4.80
2018-02-25T12:08:19.985Z,-4.70
2018-02-25T12:10:48.275Z,-5.00
2018-02-25T12:13:16.009Z,-5.00
2018-02-25T12:15:44.921Z,-4.90
2018-02-25T12:18:13.592Z,-4.80
2018-02-25T12:20:42.052Z,-4.80
2018-02-25T12:23:10.699Z,-4.80
2018-02-25T12:25:41.370Z,-4.80
2018-02-25T12:28:09.001Z,-4.80
2018-02-25T12:30:40.300Z,-4.50
2018-02-25T12:33:09.935Z,-4.70
2018-02-25T12:35:37.519Z,-4.80
2018-02-25T12:38:05.480Z,-4.80
2018-02-25T12:40:33.608Z,-4.70
2018-02-25T12:43:04.215Z,-4.40
2018-02-25T12:45:31.735Z,-4.40
2018-02-25T12:47:59.263Z,-4.60
2018-02-25T12:50:28.424Z,-3.10
2018-02-25T12:52:56.941Z,-4.50
2018-02-25T12:55:25.229Z,-4.70
2018-02-25T12:57:52.782Z,-4.70
2018-02-25T13:00:21.112Z,-4.60
2018-02-25T13:02:49.490Z,-4.70
2018-02-25T13:05:23.780Z,-4.50
2018-02-25T13:07:56.415Z,-4.40
2018-02-25T13:10:24.701Z,-4.30
2018-02-25T13:12:53.853Z,-4.30
2018-02-25T13:15:21.581Z,-4.30
2018-02-25T13:17:49.172Z,-4.30
2018-02-25T13:20:16.699Z,-4.50
2018-02-25T13:22:44.976Z,-4.40
2018-02-25T13:25:17.528Z,-4.60
2018-02-25T13:27:46.942Z,-4.50
2018-02-25T13:30:17.099Z,-4.50
2018-02-25T13:32:47.631Z,-4.50
2018-02-25T13:35:15.952Z,-4.40
2018-02-25T13:37:44.223Z,-4.10
2018-02-25T13:40:11.694Z,-4.10
2018-02-25T13:42:41.715Z,-4.10
2018-02-25T13:45:11.488Z,-4.10
2018-02-25T13:47:42.041Z,-4.40
2018-02-25T13:50:10.432Z,-4.40
2018-02-25T13:52:38.642Z,-4.40
2018-02-25T13:55:06.635Z,-4.30
2018-02-25T13:57:34.488Z,-4.40
2018-02-25T14:00:04.804Z,-4.50
2018-02-25T14:02:32.383Z,-4.30
2018-02-25T14:04:59.954Z,-4.40
2018-02-25T14:07:29.241Z,-4.30
2018-02-25T14:09:58.577Z,-4.30
2018-02-25T14:12:28.286Z,-4.30
2018-02-25T14:14:57.820Z,-4.50
2018-02-25T14:17:25.361Z,-4.50
2018-02-25T14:19:54.419Z,-4.20
2018-02-25T14:22:26.452Z,-4.20
2018-02-25T14:24:54.342Z,-4.30
2018-02-25T14:27:22.670Z,-4.50
2018-02-25T14:29:50.930Z,-4.40
2018-02-25T14:32:18.406Z,-4.50
2018-02-25T14:34:46.635Z,-4.50
2018-02-25T14:37:14.125Z,-4.50
2018-02-25T14:39:45.278Z,-4.50
2018-02-25T14:42:14.511Z,-4.30
2018-02-25T14:44:44.524Z,-4.30
2018-02-25T14:47:19.981Z,-4.40
2018-02-25T14:49:52.434Z,-4.40
2018-02-25T14:52:25.068Z,-4.20
2018-02-25T14:54:54.896Z,-4.30
2018-02-25T14:57:22.597Z,-4.30
2018-02-25T14:59:52.007Z,-4.40
2018-02-25T15:02:22.192Z,-4.30
2018-02-25T15:04:49.720Z,-4.30
2018-02-25T15:07:18.315Z,-4.40
2018-02-25T15:09:46.244Z,-4.40
2018-02-25T15:12:18.344Z,-4.50
2018-02-25T15:14:50.282Z,-4.40
2018-02-25T15:17:18.684Z,-4.50
2018-02-25T15:19:48.687Z,-4.40
2018-02-25T15:22:16.732Z,-4.40
2018-02-25T15:24:56.376Z,-4.40
2018-02-25T15:27:26.698Z,-4.40
2018-02-25T15:29:57.337Z,-4.40
2018-02-25T15:32:28.805Z,-4.50
2018-02-25T15:35:02.509Z,-4.30
2018-02-25T15:37:30.581Z,-4.50
2018-02-25T15:40:01.210Z,-4.40
2018-02-25T15:42:29.764Z,-4.40
2018-02-25T15:44:58.526Z,-4.50
2018-02-25T15:47:28.638Z,-4.50
2018-02-25T15:50:00.159Z,-4.50
2018-02-25T15:52:32.499Z,-4.60
2018-02-25T15:55:00.942Z,-4.60
2018-02-25T15:57:30.235Z,-4.60
2018-02-25T16:00:03.172Z,-4.60
2018-02-25T16:02:40.558Z,-4.70
2018-02-25T16:05:14.138Z,-4.80
2018-02-25T16:07:43.152Z,-4.90
2018-02-25T16:10:13.799Z,-4.90
2018-02-25T16:12:46.328Z,-4.80
2018-02-25T16:15:17.557Z,-4.90
2018-02-25T16:17:45.845Z,-4.90
2018-02-25T16:20:25.736Z,-4.90
2018-02-25T16:22:55.218Z,-4.90
2018-02-25T16:25:23.628Z,-4.80
2018-02-25T16:27:55.873Z,-5.00
2018-02-25T16:30:27.549Z,-5.00
2018-02-25T16:32:58.437Z,-5.00
2018-02-25T16:35:29.571Z,-5.10
2018-02-25T16:37:59.036Z,-5.20
2018-02-25T16:40:32.053Z,-5.10
2018-02-25T16:43:06.135Z,-5.30
2018-02-25T16:45:41.563Z,-5.30
2018-02-25T16:48:20.189Z,-5.40
2018-02-25T16:53:25.621Z,-5.40
2018-02-25T16:56:02.861Z,-5.50
2018-02-25T16:58:32.954Z,-5.60
2018-02-25T17:01:12.494Z,-5.60
2018-02-25T17:03:41.648Z,-5.60
2018-02-25T17:06:11.602Z,-5.70
2018-02-25T17:08:40.449Z,-5.70
2018-02-25T17:11:09.939Z,-5.70
2018-02-25T17:16:15.669Z,-5.80
2018-02-25T17:18:45.230Z,-5.80
2018-02-25T17:21:15.658Z,-5.90
2018-02-25T17:26:21.188Z,-5.90
2018-02-25T17:28:50.759Z,-5.90
2018-02-25T17:31:23.304Z,-5.90
2018-02-25T17:33:56.641Z,-6.10
2018-02-25T17:36:26.180Z,-6.10
2018-02-25T17:38:54.702Z,-6.10
2018-02-25T17:41:23.806Z,-6.20
2018-02-25T17:43:54.101Z,-6.10
2018-02-25T17:46:25.807Z,-6.20
2018-02-25T17:48:54.804Z,-6.20
2018-02-25T17:51:22.918Z,-6.30
2018-02-25T17:53:52.305Z,-6.30
2018-02-25T17:56:20.864Z,-6.30
2018-02-25T17:58:51.020Z,-6.20
2018-02-25T18:01:18.790Z,-6.20
2018-02-25T18:03:47.990Z,-6.30
2018-02-25T18:06:19.184Z,-6.30
2018-02-25T18:08:51.250Z,-6.30
2018-02-25T18:11:21.732Z,-6.30
2018-02-25T18:13:52.500Z,-6.30
2018-02-25T18:16:22.628Z,-6.30
2018-02-25T18:18:51.719Z,-6.40
2018-02-25T18:21:27.380Z,-6.40
2018-02-25T18:23:56.419Z,-6.40
2018-02-25T18:26:29.281Z,-6.40
2018-02-25T18:28:59.423Z,-6.40
2018-02-25T18:31:29.998Z,-6.50
2018-02-25T18:33:59.240Z,-6.50
2018-02-25T18:36:28.435Z,-6.50
2018-02-25T18:38:58.246Z,-6.50
2018-02-25T18:41:27.595Z,-6.50
2018-02-25T18:43:55.392Z,-6.60
2018-02-25T18:46:25.724Z,-6.60
2018-02-25T18:48:56.067Z,-6.60
2018-02-25T18:51:24.016Z,-6.70
2018-02-25T18:53:54.728Z,-6.70
2018-02-25T18:56:24.320Z,-6.70
2018-02-25T18:58:54.955Z,-6.80
2018-02-25T19:01:22.822Z,-6.80
2018-02-25T19:03:56.374Z,-6.80
2018-02-25T19:06:28.904Z,-6.80
2018-02-25T19:08:57.523Z,-6.80
2018-02-25T19:11:26.072Z,-6.80
2018-02-25T19:13:56.448Z,-6.80
2018-02-25T19:16:25.499Z,-6.90
2018-02-25T19:18:53.779Z,-6.90
2018-02-25T19:21:24.130Z,-6.90
2018-02-25T19:23:52.790Z,-6.90
2018-02-25T19:26:22.577Z,-7.00
2018-02-25T19:28:51.897Z,-7.00
2018-02-25T19:31:19.427Z,-7.00
2018-02-25T19:33:47.944Z,-7.10
2018-02-25T19:36:22.600Z,-7.10
2018-02-25T19:38:57.223Z,-7.10
2018-02-25T19:41:33.716Z,-7.20
2018-02-25T19:44:06.529Z,-7.20
2018-02-25T19:46:35.509Z,-7.20
2018-02-25T19:49:03.384Z,-7.30
2018-02-25T19:51:31.960Z,-7.30
2018-02-25T19:54:01.824Z,-7.30
2018-02-25T19:56:29.313Z,-7.40
2018-02-25T19:58:58.393Z,-7.40
2018-02-25T20:01:30.067Z,-7.50
2018-02-25T20:03:58.931Z,-7.50
2018-02-25T20:06:30.704Z,-7.60
2018-02-25T20:08:59.102Z,-7.60
2018-02-25T20:11:29.031Z,-7.60
2018-02-25T20:13:58.164Z,-7.60
2018-02-25T20:16:27.744Z,-7.60
2018-02-25T20:18:57.256Z,-7.70
2018-02-25T20:21:27.968Z,-7.70
2018-02-25T20:24:00.702Z,-7.70
2018-02-25T20:26:28.158Z,-7.70
2018-02-25T20:29:03.634Z,-7.70
2018-02-25T20:31:33.003Z,-7.80
2018-02-25T20:34:01.879Z,-7.80
2018-02-25T20:36:31.844Z,-7.90
2018-02-25T20:39:00.273Z,-7.90
2018-02-25T20:41:29.412Z,-7.90
2018-02-25T20:44:03.764Z,-7.90
2018-02-25T20:46:32.161Z,-8.00
2018-02-25T20:49:04.039Z,-8.00
2018-02-25T20:51:33.076Z,-8.00
2018-02-25T20:54:02.576Z,-8.00
2018-02-25T20:56:30.712Z,-8.00
2018-02-25T20:59:05.733Z,-8.10
2018-02-25T21:01:37.868Z,-8.10
2018-02-25T21:04:07.522Z,-8.10
2018-02-25T21:06:35.931Z,-8.20
2018-02-25T21:09:03.469Z,-8.20
2018-02-25T21:11:32.642Z,-8.30
2018-02-25T21:14:03.138Z,-8.40
2018-02-25T21:16:32.500Z,-8.30
2018-02-25T21:19:02.520Z,-8.40
2018-02-25T21:21:30.130Z,-8.40
2018-02-25T21:23:57.606Z,-8.50
2018-02-25T21:26:25.091Z,-8.50
2018-02-25T21:28:53.539Z,-8.50
2018-02-25T21:31:21.015Z,-8.60
2018-02-25T21:33:48.483Z,-8.60
2018-02-25T21:36:15.958Z,-8.60
2018-02-25T21:38:43.448Z,-8.60
2018-02-25T21:41:10.963Z,-8.60
2018-02-25T21:43:39.204Z,-8.60
2018-02-25T21:46:06.678Z,-8.60
2018-02-25T21:48:34.167Z,-8.60
2018-02-25T21:51:01.639Z,-8.70
2018-02-25T21:53:34.681Z,-8.70
2018-02-25T21:56:07.832Z,-8.70
2018-02-25T21:58:40.946Z,-8.70
2018-02-25T22:01:14.155Z,-8.80
2018-02-25T22:03:41.631Z,-8.70
2018-02-25T22:06:09.106Z,-8.60
2018-02-25T22:08:36.580Z,-8.60
2018-02-25T22:11:04.060Z,-8.70
2018-02-25T22:13:31.534Z,-8.70
2018-02-25T22:15:58.998Z,-8.70
2018-02-25T22:18:26.483Z,-8.70
2018-02-25T22:20:54.717Z,-8.80
2018-02-25T22:23:22.181Z,-8.90
2018-02-25T22:25:49.671Z,-8.80
2018-02-25T22:28:17.897Z,-8.90
2018-02-25T22:30:45.371Z,-8.90
2018-02-25T22:33:12.834Z,-9.00
2018-02-25T22:35:40.327Z,-9.00
2018-02-25T22:38:08.548Z,-9.00
2018-02-25T22:40:36.037Z,-9.10
2018-02-25T22:43:04.268Z,-8.90
2018-02-25T22:45:31.738Z,-8.90
2018-02-25T22:47:59.989Z,-9.00
2018-02-25T22:50:27.455Z,-9.00
2018-02-25T22:52:54.940Z,-9.00
2018-02-25T22:55:22.414Z,-9.10
2018-02-25T22:57:49.918Z,-9.10
2018-02-25T23:00:22.031Z,-9.20
2018-02-25T23:02:49.502Z,-9.20
2018-02-25T23:05:17.743Z,-9.30
2018-02-25T23:07:45.205Z,-9.30
2018-02-25T23:10:12.673Z,-9.30
2018-02-25T23:12:40.134Z,-9.30
2018-02-25T23:15:08.385Z,-9.30
2018-02-25T23:17:35.855Z,-9.30
2018-02-25T23:20:03.967Z,-9.40
2018-02-25T23:22:31.462Z,-9.30
2018-02-25T23:24:58.934Z,-9.40
2018-02-25T23:27:26.410Z,-9.40
2018-02-25T23:29:53.875Z,-9.30
2018-02-25T23:32:21.347Z,-9.30
2018-02-25T23:34:49.584Z,-9.50
2018-02-25T23:37:17.048Z,-9.50
2018-02-25T23:39:44.510Z,-9.50
2018-02-25T23:42:11.997Z,-9.50
2018-02-25T23:44:40.232Z,-9.50
2018-02-25T23:47:07.706Z,-9.50
2018-02-25T23:49:35.957Z,-9.60
2018-02-25T23:52:03.423Z,-9.60
2018-02-25T23:54:30.908Z,-9.60
2018-02-25T23:56:59.139Z,-9.60
2018-02-25T23:59:26.614Z,-9.60
